Terminal Aerodrome Forecast
Issued by NWS Twin Cities, MN

Home | Current Version | Previous Version | Text Only | Print | Product List | Glossary On
Versions: 1 2 3 4 5 6 7 8 9 10 11 12
000
FTUS43 KMPX 022336
TAFEAU
TAF
KEAU 022336Z 0300/0324 19007KT P6SM SCT100
     FM031300 20010KT P6SM VCSH BKN050 OVC090
     FM031800 22009KT P6SM BKN040
     FM032200 26009KT P6SM -SHRA OVC035 PROB30 0322/0324 2SM TSRA
      OVC030CB=

USA.gov is the U.S. government's official web portal to all federal, state and local government web resources and services.